X  Close Metar Aviation Weather Data     EGSS London Stansted Airport
Temperature
17°C Temperature
15°C Dewpoint
88% Humidity



Wind
10 MPH
16 KM/H
4 M/S
9 KTS



220°
SW
Current Conditions

Partly Cloudy Partly Cloudy
Pressure 1014.9 (hPa) - 29.97 (inHg)
Visibility 6 (mile) - 9.7 (km)
Airport
Airport-code EGSS

Location: London Stansted Airport
Distance: 6 (mi)

Metar:
EGSS 222250Z AUTO 22009KT 9999 FEW016 17/15 Q1015

Time: 22-07-2024 23:50 BST